FDX9985 KIAD-KMYR
Flight info
| Callsign | FDX9985 |
|---|---|
| Flight time | N/A |
| Altitude | 40000 |
| Route | JDUBB4 MELTN SBV/N0463F410 RDU/N0467F400 |
| Aircraft | B752/M-SDE2E3FGHIJ3J4J7RWXY/LB1 |
Departure
| Time | 2026-05-08 02:35 |
|---|---|
| Airport | Washington Dulles International Airport (KIAD) |
Arrival
| Time | N/A |
|---|---|
| Airport | Myrtle Beach International Airport (KMYR) |
| Time | Latitude | Longitude | Altitude | Speed | Heading |
|---|---|---|---|---|---|
| 2026-05-08 02:12 | 38.95718 | -77.45438 | 288 ft | 0 kts | 91° |
| 2026-05-08 02:24 | 38.95718 | -77.45449 | 288 ft | 2 kts | 90° |
| 2026-05-08 02:24 | 38.95716 | -77.45468 | 288 ft | 2 kts | 66° |
| 2026-05-08 02:25 | 38.95708 | -77.45485 | 288 ft | 2 kts | 49° |
| 2026-05-08 02:25 | 38.95697 | -77.45497 | 288 ft | 2 kts | 31° |
| 2026-05-08 02:25 | 38.95683 | -77.45505 | 288 ft | 2 kts | 12° |
| 2026-05-08 02:25 | 38.95676 | -77.45506 | 288 ft | 1 kts | 4° |
| 2026-05-08 02:26 | 38.95673 | -77.45506 | 288 ft | 0 kts | 6° |
| 2026-05-08 02:28 | 38.95684 | -77.45505 | 288 ft | 5 kts | 6° |
| 2026-05-08 02:28 | 38.95724 | -77.45549 | 287 ft | 11 kts | 282° |
| 2026-05-08 02:28 | 38.95721 | -77.45668 | 286 ft | 15 kts | 253° |
| 2026-05-08 02:29 | 38.95624 | -77.45712 | 286 ft | 17 kts | 178° |
| 2026-05-08 02:29 | 38.95493 | -77.45709 | 287 ft | 18 kts | 180° |
| 2026-05-08 02:29 | 38.95358 | -77.45712 | 288 ft | 20 kts | 182° |
| 2026-05-08 02:29 | 38.95206 | -77.45717 | 289 ft | 23 kts | 181° |
| 2026-05-08 02:30 | 38.95067 | -77.45716 | 290 ft | 14 kts | 180° |
| 2026-05-08 02:30 | 38.94954 | -77.45717 | 291 ft | 17 kts | 182° |
| 2026-05-08 02:30 | 38.94823 | -77.45721 | 292 ft | 19 kts | 180° |
| 2026-05-08 02:30 | 38.94692 | -77.45721 | 293 ft | 18 kts | 180° |
| 2026-05-08 02:31 | 38.94555 | -77.45726 | 294 ft | 21 kts | 183° |
| 2026-05-08 02:31 | 38.94395 | -77.45728 | 295 ft | 24 kts | 180° |
| 2026-05-08 02:31 | 38.94275 | -77.45728 | 295 ft | 6 kts | 180° |
| 2026-05-08 02:31 | 38.94216 | -77.45728 | 295 ft | 10 kts | 180° |
| 2026-05-08 02:32 | 38.94129 | -77.45728 | 295 ft | 14 kts | 181° |
| 2026-05-08 02:32 | 38.94016 | -77.45731 | 295 ft | 18 kts | 181° |
| 2026-05-08 02:32 | 38.93874 | -77.45736 | 294 ft | 21 kts | 182° |
| 2026-05-08 02:32 | 38.93784 | -77.45728 | 293 ft | 10 kts | 147° |
| 2026-05-08 02:33 | 38.93744 | -77.45675 | 293 ft | 7 kts | 132° |
| 2026-05-08 02:33 | 38.93698 | -77.45603 | 292 ft | 14 kts | 128° |
| 2026-05-08 02:33 | 38.93601 | -77.45495 | 291 ft | 18 kts | 178° |
| 2026-05-08 02:33 | 38.93492 | -77.45543 | 289 ft | 16 kts | 202° |
| 2026-05-08 02:34 | 38.93393 | -77.45591 | 288 ft | 9 kts | 200° |
| 2026-05-08 02:34 | 38.93373 | -77.45631 | 288 ft | 7 kts | 287° |
| 2026-05-08 02:34 | 38.93442 | -77.45869 | 289 ft | 60 kts | 291° |
| 2026-05-08 02:34 | 38.93676 | -77.46659 | 296 ft | 129 kts | 290° |
| 2026-05-08 02:35 | 38.94062 | -77.47865 | 738 ft | 155 kts | 292° |
| 2026-05-08 02:35 | 38.94471 | -77.49110 | 1710 ft | 155 kts | 293° |
| 2026-05-08 02:35 | 38.94836 | -77.50381 | 2518 ft | 161 kts | 285° |
| 2026-05-08 02:35 | 38.94655 | -77.51896 | 3054 ft | 193 kts | 245° |
| 2026-05-08 02:36 | 38.93591 | -77.53115 | 3696 ft | 224 kts | 212° |
| 2026-05-08 02:36 | 38.92120 | -77.54011 | 4481 ft | 242 kts | 208° |
| 2026-05-08 02:36 | 38.90409 | -77.54414 | 5262 ft | 266 kts | 180° |
| 2026-05-08 02:36 | 38.88536 | -77.54182 | 6080 ft | 283 kts | 180° |
| 2026-05-08 02:37 | 38.86538 | -77.54098 | 7226 ft | 287 kts | 184° |
| 2026-05-08 02:37 | 38.84579 | -77.54100 | 8415 ft | 289 kts | 185° |
| 2026-05-08 02:37 | 38.82545 | -77.54156 | 9516 ft | 294 kts | 187° |
| 2026-05-08 02:37 | 38.80510 | -77.54241 | 10622 ft | 298 kts | 188° |
| 2026-05-08 02:38 | 38.78394 | -77.54353 | 11336 ft | 316 kts | 188° |
| 2026-05-08 02:38 | 38.76132 | -77.54481 | 12048 ft | 333 kts | 189° |
| 2026-05-08 02:38 | 38.73798 | -77.54617 | 12606 ft | 354 kts | 189° |
| 2026-05-08 02:38 | 38.71243 | -77.54768 | 13241 ft | 371 kts | 189° |
| 2026-05-08 02:39 | 38.68658 | -77.54919 | 14109 ft | 379 kts | 189° |
| 2026-05-08 02:39 | 38.66021 | -77.55070 | 15211 ft | 380 kts | 191° |
| 2026-05-08 02:39 | 38.63368 | -77.55227 | 16192 ft | 383 kts | 191° |
| 2026-05-08 02:39 | 38.60695 | -77.55387 | 17024 ft | 389 kts | 192° |
| 2026-05-08 02:40 | 38.57963 | -77.55550 | 17989 ft | 393 kts | 192° |
| 2026-05-08 02:40 | 38.55254 | -77.55712 | 18845 ft | 399 kts | 193° |
| 2026-05-08 02:40 | 38.52464 | -77.55880 | 19832 ft | 402 kts | 193° |
| 2026-05-08 02:40 | 38.49645 | -77.56049 | 20676 ft | 409 kts | 193° |
| 2026-05-08 02:41 | 38.46752 | -77.56223 | 21465 ft | 416 kts | 194° |
| 2026-05-08 02:41 | 38.43875 | -77.56403 | 22493 ft | 412 kts | 195° |
| 2026-05-08 02:41 | 38.41051 | -77.56977 | 22909 ft | 410 kts | 206° |
| 2026-05-08 02:41 | 38.38454 | -77.58221 | 23955 ft | 392 kts | 216° |
| 2026-05-08 02:42 | 38.36120 | -77.59947 | 24549 ft | 392 kts | 223° |
| 2026-05-08 02:42 | 38.33813 | -77.61857 | 25339 ft | 396 kts | 223° |
| 2026-05-08 02:42 | 38.31495 | -77.63784 | 26081 ft | 398 kts | 224° |
| 2026-05-08 02:42 | 38.29266 | -77.65662 | 26725 ft | 401 kts | 223° |
| 2026-05-08 02:43 | 38.27140 | -77.67474 | 27324 ft | 404 kts | 224° |
| 2026-05-08 02:43 | 38.24685 | -77.69569 | 28049 ft | 405 kts | 224° |
| 2026-05-08 02:43 | 38.22341 | -77.71580 | 28531 ft | 410 kts | 224° |
| 2026-05-08 02:43 | 38.19955 | -77.73622 | 29090 ft | 413 kts | 224° |
| 2026-05-08 02:44 | 38.17582 | -77.75657 | 29655 ft | 415 kts | 225° |
| 2026-05-08 02:44 | 38.15200 | -77.77689 | 30533 ft | 408 kts | 225° |
| 2026-05-08 02:44 | 38.12893 | -77.79658 | 31303 ft | 401 kts | 226° |
| 2026-05-08 02:44 | 38.10539 | -77.81678 | 31756 ft | 403 kts | 226° |
| 2026-05-08 02:45 | 38.08237 | -77.83644 | 32514 ft | 396 kts | 226° |
| 2026-05-08 02:45 | 38.05994 | -77.85555 | 33399 ft | 386 kts | 227° |
| 2026-05-08 02:45 | 38.03768 | -77.87463 | 33911 ft | 386 kts | 228° |
| 2026-05-08 02:45 | 38.01553 | -77.89361 | 34413 ft | 384 kts | 227° |
| 2026-05-08 02:46 | 37.99311 | -77.91280 | 34951 ft | 388 kts | 227° |
| 2026-05-08 02:46 | 37.97073 | -77.93192 | 35318 ft | 385 kts | 227° |
| 2026-05-08 02:46 | 37.94839 | -77.95098 | 35793 ft | 387 kts | 226° |
| 2026-05-08 02:46 | 37.92610 | -77.96995 | 36494 ft | 384 kts | 226° |
| 2026-05-08 02:47 | 37.90399 | -77.98879 | 36999 ft | 384 kts | 227° |
| 2026-05-08 02:47 | 37.88380 | -78.00600 | 37196 ft | 390 kts | 226° |
| 2026-05-08 02:47 | 37.86456 | -78.02233 | 37794 ft | 385 kts | 226° |